Aviation Digital Data Service (ADDS)

Output produced by METARs form (1043 UTC 20 August 2014)
found at http://www.aviationweather.gov/adds/metars/
 
KAOO 201040Z AUTO 00000KT 4SM -RA BR BKN010 OVC015 20/19 A2997 RMK AO2 RAB39 CIG 009V012 P0000 T02000194
KAOO 201021Z AUTO 00000KT 4SM BR SCT010 OVC015 19/19 A2996 RMK AO2 T01940194
KAOO 200953Z AUTO 00000KT 4SM BR OVC014 19/19 A2995 RMK AO2 SLP133 T01940189
KAOO 200853Z AUTO 00000KT 4SM BR OVC012 20/19 A2994 RMK AO2 SLP127 T02000194 55005
KAOO 200821Z AUTO 18004KT 6SM BR BKN013 21/19 A2994 RMK AO2 T02060194
KAOO 200753Z AUTO 18006KT 6SM BR CLR 20/19 A2993 RMK AO2 SLP126 T02000194
KAOO 200653Z AUTO 00000KT 4SM BR SCT026 18/18 A2994 RMK AO2 SLP131 T01780178
KAOO 200553Z AUTO 00000KT 5SM BR SCT030 18/18 A2995 RMK AO2 SLP133 T01830183 10217 20178 50002
KAOO 200453Z AUTO 00000KT 4SM BR FEW022 SCT031 18/18 A2996 RMK AO2 SLP136 T01830178 402560178
KAOO 200433Z AUTO 00000KT 5SM BR FEW017 FEW024 BKN031 19/18 A2996 RMK AO2 T01890183
KAOO 200403Z AUTO 18003KT 7SM BKN029 19/18 A2996 RMK AO2 T01940183
KAOO 200353Z AUTO 17003KT 6SM BR FEW017 SCT027 19/18 A2996 RMK AO2 SLP136 T01890183
KAOO 200253Z AUTO 00000KT 6SM BR CLR 19/18 A2995 RMK AO2 SLP133 T01890178 51010
KAOO 200153Z AUTO 00000KT 8SM BKN031 OVC065 21/19 A2994 RMK AO2 SLP131 T02060189
KAOO 200142Z AUTO 00000KT 7SM BKN031 BKN060 21/19 A2995 RMK AO2 T02060189
KAOO 200126Z AUTO 00000KT 9SM BKN029 21/19 A2994 RMK AO2 T02110189
KAOO 200053Z AUTO 00000KT 9SM CLR 21/19 A2993 RMK AO2 SLP125 T02110194
KAOO 192353Z AUTO 00000KT 9SM SCT028 22/20 A2992 RMK AO2 SLP121 60000 T02220200 10256 20222 51003
KAOO 192351Z AUTO 11003KT 9SM BKN028 22/20 A2992 RMK AO2
KAOO 192253Z AUTO 12005KT 10SM FEW030 24/19 A2991 RMK AO2 SLP118 T02390194
KAOO 192153Z AUTO 14006KT 10SM SCT022 24/19 A2990 RMK AO2 SLP117 T02390194
KAOO 192146Z AUTO 13006KT 10SM SCT022 SCT029 24/19 A2991 RMK AO2 T02440194
KAOO 192115Z AUTO 14007KT 10SM BKN024 24/19 A2991 RMK AO2 T02440189
KAOO 192053Z AUTO 15005KT 10SM FEW080 25/19 A2991 RMK AO2 SLP117 60000 T02500194 56007
KAOO 191953Z AUTO 14005KT 10SM SCT026 BKN033 BKN042 24/19 A2991 RMK AO2 LTG DSNT SW RAB1856E05 SLP119 P0000 T02390194
KAOO 191945Z AUTO 12004KT 10SM SCT028 SCT042 BKN100 24/19 A2992 RMK AO2 LTG DSNT SW RAB1856E05 P0000 T02390194
KAOO 191853Z AUTO 12003KT 10SM OVC026 23/19 A2992 RMK AO2 RAB38E47 SLP121 P0000 T02280189
KAOO 191753Z AUTO 17005KT 10SM OVC023 23/19 A2993 RMK AO2 SLP124 T02330189 10239 20189 55002
KAOO 191653Z AUTO 14005KT 10SM OVC022 22/19 A2992 RMK AO2 SLP123 T02220189
KAOO 191553Z AUTO 14004KT 10SM BKN016 BKN022 OVC030 23/19 A2993 RMK AO2 SLP125 T02280189
KAOO 191453Z AUTO 12005KT 10SM BKN015 BKN031 22/18 A2993 RMK AO2 SLP126 T02220183 51013
KAOO 191416Z AUTO 12004KT 10SM BKN015 BKN022 OVC032 21/18 A2993 RMK AO2 T02110183
KAOO 191353Z AUTO VRB03KT 10SM BKN013 OVC023 21/18 A2993 RMK AO2 SLP125 T02060183
KAOO 191253Z AUTO 00000KT 8SM OVC013 19/18 A2992 RMK AO2 SLP122 T01940178
KAOO 191153Z AUTO 00000KT 5SM BR OVC013 19/18 A2989 RMK AO2 SLP113 T01890178 10200 20178 51005
KAOO 191117Z AUTO 00000KT 5SM BR BKN013 18/18 A2989 RMK AO2 T01830178
KAOO 191053Z AUTO 00000KT 5SM BR OVC016 18/18 A2989 RMK AO2 SLP113 T01830178
KAOO 190953Z AUTO 08003KT 5SM BR OVC017 18/18 A2988 RMK AO2 SLP110 T01830178
KAOO 190917Z AUTO 00000KT 3SM BR BKN017 BKN100 18/18 A2989 RMK AO2 T01780178
KAOO 190853Z AUTO 07004KT 6SM BR FEW019 SCT065 BKN100 18/18 A2988 RMK AO2 SLP107 T01830178 56003
KAOO 190753Z AUTO 00000KT 6SM BR OVC090 19/18 A2988 RMK AO2 SLP107 T01890183
KAOO 190653Z AUTO 00000KT 7SM FEW022 OVC095 19/18 A2988 RMK AO2 SLP108 T01940183
KAOO 190553Z AUTO 00000KT 10SM OVC065 19/18 A2989 RMK AO2 SLP111 T01940178 10228 20194 50001
KAOO 190453Z AUTO 00000KT 10SM BKN042 21/18 A2990 RMK AO2 SLP113 T02060178 402670133
KAOO 190353Z AUTO 13004KT 10SM OVC041 21/18 A2989 RMK AO2 SLP111 T02110183
KAOO 190253Z AUTO 00000KT 10SM BKN038 21/18 A2989 RMK AO2 SLP111 T02060183 51006
KAOO 190153Z AUTO 13004KT 10SM SCT045 OVC075 22/18 A2989 RMK AO2 SLP110 T02170183
KAOO 190053Z AUTO 09004KT 10SM BKN038 BKN060 OVC075 22/18 A2988 RMK AO2 SLP111 T02220183
KAOO 182353Z AUTO 09004KT 10SM FEW037 BKN070 OVC090 23/18 A2987 RMK AO2 SLP106 T02280183 10267 20228 53000
KAOO 182253Z AUTO 07006KT 10SM BKN070 24/18 A2986 RMK AO2 SLP103 T02390183